Time;durP1;ratioP1;P1;durP2;ratioP2;P2;SDS_P1;SDS_P2;PMS_P1;PMS_P2;Temp;Humidity;BMP_temperature;BMP_pressure;BME280_temperature;BME280_humidity;BME280_pressure;Samples;Min_cycle;Max_cycle;Signal;HPM_P1;HPM_P2
2022/10/01 00:01:58;;;;;;;;;;;;;;;7.41;88.38;96238.72;4899939;29;20010;-75
2022/10/01 00:04:25;;;;;;;;;;;;;;;7.37;88.47;96242.75;4900031;29;19968;-75
2022/10/01 00:06:51;;;;;;;;;;;;;;;7.34;88.75;96244.94;4899776;29;19958;-75
2022/10/01 00:09:17;;;;;;;;;;;;;;;7.31;87.98;96239.13;4899419;29;19963;-75
2022/10/01 00:11:43;;;;;;;;;;;;;;;7.30;88.01;96241.94;4900104;29;19965;-75
2022/10/01 00:14:09;;;;;;;;;;;;;;;7.27;88.56;96245.75;4899446;29;20460;-75
2022/10/01 00:16:35;;;;;;;;;;;;;;;7.25;88.16;96247.75;4898212;29;19955;-75
2022/10/01 00:19:00;;;;;;;;;;;;;;;7.23;88.85;96243.75;4899666;29;20040;-75
2022/10/01 00:21:28;;;;;;;;;;;;;;;7.21;88.76;96243.16;4899339;29;20000;-75
2022/10/01 00:23:58;;;;;;;;;;;;;;;7.20;88.33;96237.16;4898204;29;20337;-75
2022/10/01 00:26:26;;;;;;;;;;;;;;;7.18;88.22;96230.50;4898179;29;19980;-75
2022/10/01 00:28:53;;;;;;;;;;;;;;;7.16;87.77;96228.13;4899381;29;20417;-75
2022/10/01 00:31:19;;;;;;;;;;;;;;;7.15;87.87;96225.69;4898985;29;20351;-76
2022/10/01 00:33:45;;;;;;;;;;;;;;;7.14;88.58;96231.91;4899232;29;19976;-75
2022/10/01 00:36:11;;;;;;;;;;;;;;;7.13;89.44;96235.53;4899207;29;19962;-76
2022/10/01 00:38:39;;;;;;;;;;;;;;;7.13;89.32;96227.72;4899238;29;19947;-75
2022/10/01 00:41:05;;;;;;;;;;;;;;;7.10;88.94;96232.31;4899076;29;19953;-76
2022/10/01 00:43:32;;;;;;;;;;;;;;;7.08;89.04;96236.13;4898971;29;19972;-76
2022/10/01 00:46:05;;;;;;;;;;;;;;;7.07;88.99;96239.75;4899269;29;19955;-75
2022/10/01 00:48:34;;;;;;;;;;;;;;;7.06;89.43;96245.97;4899167;29;19956;-76
2022/10/01 00:51:00;;;;;;;;;;;;;;;7.05;89.82;96249.56;4899186;29;20330;-75
2022/10/01 00:53:26;;;;;;;;;;;;;;;7.04;89.94;96261.00;4898908;29;19958;-75
2022/10/01 00:55:54;;;;;;;;;;;;;;;7.03;90.10;96265.41;4898882;29;19972;-76
2022/10/01 00:58:20;;;;;;;;;;;;;;;7.03;90.16;96251.56;4898880;29;20317;-75
2022/10/01 01:00:47;;;;;;;;;;;;;;;7.02;90.40;96253.38;4898662;29;20414;-75
2022/10/01 01:03:13;;;;;;;;;;;;;;;7.03;90.32;96249.75;4898631;29;19968;-75
2022/10/01 01:05:39;;;;;;;;;;;;;;;7.02;90.31;96242.16;4898814;29;20024;-75
2022/10/01 01:08:06;;;;;;;;;;;;;;;7.02;90.34;96234.34;4898769;29;19956;-75
2022/10/01 01:10:32;;;;;;;;;;;;;;;7.00;89.93;96246.75;4898257;29;19959;-76
2022/10/01 01:13:07;;;;;;;;;;;;;;;6.99;89.98;96232.94;4898484;29;19960;-76
2022/10/01 01:15:34;;;;;;;;;;;;;;;6.98;89.65;96231.31;4898549;29;19981;-76
2022/10/01 01:18:16;;;;;;;;;;;;;;;6.96;89.72;96230.72;4898230;29;19949;-75
2022/10/01 01:20:48;;;;;;;;;;;;;;;6.95;89.38;96229.13;4897815;29;19955;-76
2022/10/01 01:23:14;;;;;;;;;;;;;;;6.92;90.50;96237.31;4898786;29;19972;-75
2022/10/01 01:25:40;;;;;;;;;;;;;;;6.89;90.47;96235.94;4898498;29;19958;-78
2022/10/01 01:28:09;;;;;;;;;;;;;;;6.88;90.14;96230.91;4898428;29;20314;-78
2022/10/01 01:30:39;;;;;;;;;;;;;;;6.87;90.07;96224.91;4897496;29;19956;-77
2022/10/01 01:33:10;;;;;;;;;;;;;;;6.86;90.09;96219.88;4898581;29;19993;-77
2022/10/01 01:35:40;;;;;;;;;;;;;;;6.86;90.19;96212.84;4898448;29;19972;-77
2022/10/01 01:38:09;;;;;;;;;;;;;;;6.87;90.23;96214.47;4898360;29;19974;-76
2022/10/01 01:40:37;;;;;;;;;;;;;;;6.86;90.53;96207.63;4898441;29;20401;-76
2022/10/01 01:43:06;;;;;;;;;;;;;;;6.82;92.27;96198.59;4898463;29;19954;-75
2022/10/01 01:45:34;;;;;;;;;;;;;;;6.80;91.52;96192.00;4898577;29;19953;-75
2022/10/01 01:48:01;;;;;;;;;;;;;;;6.80;91.25;96184.19;4898302;29;19955;-75
2022/10/01 01:50:29;;;;;;;;;;;;;;;6.80;92.12;96186.78;4898532;29;19962;-76
2022/10/01 01:52:55;;;;;;;;;;;;;;;6.81;92.72;96183.19;4898362;29;20322;-76
2022/10/01 01:55:22;;;;;;;;;;;;;;;6.80;92.62;96169.34;4898271;29;19972;-76
2022/10/01 01:57:48;;;;;;;;;;;;;;;6.82;92.76;96172.53;4898561;29;19956;-76
2022/10/01 02:00:14;;;;;;;;;;;;;;;6.82;93.71;96158.72;4898331;29;19963;-77
2022/10/01 02:02:43;;;;;;;;;;;;;;;6.84;93.57;96169.75;4898065;29;19971;-77
2022/10/01 02:05:12;;;;;;;;;;;;;;;6.87;93.68;96164.16;4898511;29;20410;-77
2022/10/01 02:07:57;;;;;;;;;;;;;;;6.89;93.38;96165.53;4898240;29;19960;-76
2022/10/01 02:10:26;;;;;;;;;;;;;;;6.88;93.72;96169.13;4884320;29;20055;-76
2022/10/01 02:13:02;;;;;;;;;;;;;;;6.88;93.51;96161.31;4898135;29;19954;-76
2022/10/01 02:15:54;;;;;;;;;;;;;;;6.88;94.19;96156.09;4900480;29;20421;-76
2022/10/01 02:18:29;;;;;;;;;;;;;;;6.88;94.44;96156.09;4899097;29;19955;-76
2022/10/01 02:21:02;;;;;;;;;;;;;;;6.88;94.17;96153.50;4901682;29;20430;-76
2022/10/01 02:23:31;;;;;;;;;;;;;;;6.92;94.03;96151.31;4900432;29;20336;-77
2022/10/01 02:26:00;;;;;;;;;;;;;;;6.93;93.67;96147.72;4893477;29;19961;-75
2022/10/01 02:28:28;;;;;;;;;;;;;;;6.93;93.63;96147.72;4901388;29;19964;-75
2022/10/01 02:30:55;;;;;;;;;;;;;;;6.91;93.59;96152.31;4901569;29;19961;-75
2022/10/01 02:33:24;;;;;;;;;;;;;;;6.89;94.29;96160.34;4901645;29;20002;-75
2022/10/01 02:35:52;;;;;;;;;;;;;;;6.89;94.07;96159.53;4901363;29;19968;-75
2022/10/01 02:38:20;;;;;;;;;;;;;;;6.89;94.73;96157.72;4901344;29;19974;-75
2022/10/01 02:40:48;;;;;;;;;;;;;;;6.91;94.96;96150.50;4901819;29;20437;-75
2022/10/01 02:43:30;;;;;;;;;;;;;;;6.94;94.80;96143.28;4901093;29;19956;-75
2022/10/01 02:46:00;;;;;;;;;;;;;;;6.95;94.74;96147.47;4901196;29;19960;-75
2022/10/01 02:48:26;;;;;;;;;;;;;;;6.98;94.65;96141.88;4900904;29;19965;-74
2022/10/01 02:50:56;;;;;;;;;;;;;;;6.99;94.19;96153.91;4901026;29;19954;-75
2022/10/01 02:53:31;;;;;;;;;;;;;;;6.99;95.11;96146.06;4901202;29;19955;-75
2022/10/01 02:55:59;;;;;;;;;;;;;;;6.96;94.97;96134.25;4900665;29;19970;-75
2022/10/01 02:58:25;;;;;;;;;;;;;;;6.96;94.64;96133.47;4900973;29;19954;-75
2022/10/01 03:00:52;;;;;;;;;;;;;;;6.96;95.14;96125.63;4901271;29;20006;-76
2022/10/01 03:03:17;;;;;;;;;;;;;;;6.96;94.94;96138.66;4900853;29;19982;-75
2022/10/01 03:05:43;;;;;;;;;;;;;;;6.95;94.97;96139.66;4900797;29;19966;-75
2022/10/01 03:08:09;;;;;;;;;;;;;;;6.94;95.13;96144.09;4901271;29;19953;-75
2022/10/01 03:10:35;;;;;;;;;;;;;;;6.93;94.94;96142.50;4900886;29;19959;-75
2022/10/01 03:13:01;;;;;;;;;;;;;;;6.94;94.93;96138.88;4900415;29;20414;-75
2022/10/01 03:15:27;;;;;;;;;;;;;;;6.96;94.43;96138.66;4900814;29;19970;-75
2022/10/01 03:17:53;;;;;;;;;;;;;;;6.93;94.98;96136.44;4900611;29;19954;-75
2022/10/01 03:20:19;;;;;;;;;;;;;;;6.92;94.92;96148.69;4900106;29;20337;-75
2022/10/01 03:22:45;;;;;;;;;;;;;;;6.92;94.76;96143.47;4900651;29;20324;-76
2022/10/01 03:25:12;;;;;;;;;;;;;;;6.93;94.74;96139.88;4899322;29;20313;-75
2022/10/01 03:27:38;;;;;;;;;;;;;;;6.96;94.63;96138.66;4900545;29;19956;-75
2022/10/01 03:30:04;;;;;;;;;;;;;;;6.97;94.19;96138.47;4900655;29;19962;-76
2022/10/01 03:32:30;;;;;;;;;;;;;;;6.98;93.97;96136.66;4900169;29;20045;-76
2022/10/01 03:34:57;;;;;;;;;;;;;;;6.99;93.90;96127.81;4900077;29;19980;-76
2022/10/01 03:37:23;;;;;;;;;;;;;;;6.99;94.08;96125.22;4900388;29;19960;-76
2022/10/01 03:39:51;;;;;;;;;;;;;;;6.99;93.99;96131.25;4899843;29;20452;-76
2022/10/01 03:42:17;;;;;;;;;;;;;;;7.00;94.28;96129.44;4900210;29;19961;-76
2022/10/01 03:44:43;;;;;;;;;;;;;;;7.00;94.16;96119.03;4900164;29;19959;-76
2022/10/01 03:47:09;;;;;;;;;;;;;;;6.99;94.51;96113.00;4900077;29;20400;-76
2022/10/01 03:49:35;;;;;;;;;;;;;;;6.98;94.75;96113.19;4900482;29;19959;-76
2022/10/01 03:52:01;;;;;;;;;;;;;;;6.97;94.31;96109.81;4900152;29;19961;-76
2022/10/01 03:54:30;;;;;;;;;;;;;;;6.99;94.68;96113.00;4900220;29;19968;-75
2022/10/01 03:56:56;;;;;;;;;;;;;;;7.00;94.52;96111.19;4899938;29;20000;-75
2022/10/01 03:59:22;;;;;;;;;;;;;;;6.99;94.81;96101.75;4899788;29;19958;-76
2022/10/01 04:01:48;;;;;;;;;;;;;;;6.98;95.24;96106.19;4900186;29;19961;-75
2022/10/01 04:04:14;;;;;;;;;;;;;;;6.98;95.60;96111.38;4898718;29;19959;-75
2022/10/01 04:06:40;;;;;;;;;;;;;;;7.00;96.17;96114.59;4899643;29;19958;-75
2022/10/01 04:09:08;;;;;;;;;;;;;;;7.01;95.27;96102.34;4899641;29;19960;-75
2022/10/01 04:11:34;;;;;;;;;;;;;;;7.01;95.24;96097.94;4899527;29;19965;-76
2022/10/01 04:14:00;;;;;;;;;;;;;;;6.99;95.68;96099.97;4899643;29;19978;-75
2022/10/01 04:16:26;;;;;;;;;;;;;;;6.99;96.16;96099.97;4899307;29;20466;-75
2022/10/01 04:18:52;;;;;;;;;;;;;;;6.95;96.40;96088.34;4899884;29;19956;-75
2022/10/01 04:21:18;;;;;;;;;;;;;;;6.93;96.10;96087.75;4899480;29;20404;-76
2022/10/01 04:23:44;;;;;;;;;;;;;;;6.90;96.10;96083.72;4899530;29;19958;-73
2022/10/01 04:26:10;;;;;;;;;;;;;;;7.17;100.00;96077.66;4899774;29;20401;-74
2022/10/01 04:28:36;;;;;;;;;;;;;;;7.27;98.15;96073.63;4899471;29;19956;-75
2022/10/01 04:33:47;;;;;;;;;;;;;;;7.24;95.55;96094.88;4899410;29;20309;-75
2022/10/01 04:36:13;;;;;;;;;;;;;;;7.16;96.06;96087.31;4897997;29;19983;-75
2022/10/01 04:38:39;;;;;;;;;;;;;;;7.10;95.53;96088.91;4898586;29;20322;-75
2022/10/01 04:41:04;;;;;;;;;;;;;;;7.05;96.00;96093.91;4899061;29;19969;-75
2022/10/01 04:43:30;;;;;;;;;;;;;;;7.03;96.21;96092.53;4899289;29;19957;-75
2022/10/01 04:45:56;;;;;;;;;;;;;;;7.01;96.39;96084.91;4899193;29;20322;-75
2022/10/01 04:48:23;;;;;;;;;;;;;;;7.02;95.73;96083.13;4898664;29;20006;-76
2022/10/01 04:50:48;;;;;;;;;;;;;;;7.01;96.63;96079.69;4899044;29;19958;-75
2022/10/01 04:53:14;;;;;;;;;;;;;;;7.00;96.13;96072.88;4898958;29;20030;-76
2022/10/01 04:55:41;;;;;;;;;;;;;;;6.98;96.54;96069.69;4897760;29;20067;-75
2022/10/01 04:58:06;;;;;;;;;;;;;;;6.99;96.35;96076.50;4898828;29;19951;-75
2022/10/01 05:00:32;;;;;;;;;;;;;;;6.99;96.04;96076.50;4898810;29;20451;-75
2022/10/01 05:02:58;;;;;;;;;;;;;;;6.98;96.24;96072.28;4899222;29;19966;-76
2022/10/01 05:05:26;;;;;;;;;;;;;;;6.99;96.72;96084.34;4898821;29;19976;-76
2022/10/01 05:07:51;;;;;;;;;;;;;;;7.01;96.41;96077.06;4898717;29;19951;-76
2022/10/01 05:10:19;;;;;;;;;;;;;;;7.02;96.92;96068.28;4898574;29;20006;-76
2022/10/01 05:12:46;;;;;;;;;;;;;;;7.04;96.71;96068.06;4898832;29;19959;-76
2022/10/01 05:15:11;;;;;;;;;;;;;;;7.07;96.77;96071.06;4898486;29;19969;-76
2022/10/01 05:17:37;;;;;;;;;;;;;;;7.09;96.07;96069.03;4899005;29;20044;-75
2022/10/01 05:20:05;;;;;;;;;;;;;;;7.11;96.13;96074.06;4898835;29;19965;-75
2022/10/01 05:22:30;;;;;;;;;;;;;;;7.11;96.03;96072.25;4898607;29;19952;-75
2022/10/01 05:24:58;;;;;;;;;;;;;;;7.13;95.79;96068.66;4898426;29;20014;-76
2022/10/01 05:27:25;;;;;;;;;;;;;;;7.13;96.59;96068.66;4898596;29;19970;-75
2022/10/01 05:29:52;;;;;;;;;;;;;;;7.13;96.12;96069.44;4898371;29;20312;-75
2022/10/01 05:32:18;;;;;;;;;;;;;;;7.15;96.95;96074.47;4898710;29;19983;-75
2022/10/01 05:34:44;;;;;;;;;;;;;;;7.16;96.89;96065.63;4898418;29;19953;-74
2022/10/01 05:37:28;;;;;;;;;;;;;;;7.18;96.49;96063.59;4898305;29;19950;-75
2022/10/01 05:39:54;;;;;;;;;;;;;;;7.18;96.91;96058.38;4898351;29;19957;-75
2022/10/01 05:42:20;;;;;;;;;;;;;;;7.19;96.41;96054.78;4898539;29;19960;-75
2022/10/01 05:44:46;;;;;;;;;;;;;;;7.20;97.29;96053.75;4897333;29;20048;-75
2022/10/01 05:47:12;;;;;;;;;;;;;;;7.21;98.20;96050.97;4888092;29;20414;-74
2022/10/01 05:49:41;;;;;;;;;;;;;;;7.23;97.34;96048.94;4900997;29;19954;-75
2022/10/01 05:52:08;;;;;;;;;;;;;;;7.28;98.15;96038.69;4902306;29;20405;-74
2022/10/01 05:54:34;;;;;;;;;;;;;;;7.35;96.50;96038.69;4902170;29;19962;-75
2022/10/01 05:57:00;;;;;;;;;;;;;;;7.43;97.53;96035.03;4902037;29;19972;-75
2022/10/01 05:59:26;;;;;;;;;;;;;;;7.49;98.61;96034.19;4901829;29;19980;-74
2022/10/01 06:01:52;;;;;;;;;;;;;;;7.55;96.55;96035.19;4901752;29;19964;-75
2022/10/01 06:04:18;;;;;;;;;;;;;;;7.58;97.51;96032.13;4901936;29;19972;-74
2022/10/01 06:06:44;;;;;;;;;;;;;;;7.60;95.23;96020.50;4901972;29;19959;-74
2022/10/01 06:09:10;;;;;;;;;;;;;;;7.61;95.24;96019.47;4902066;29;19988;-74
2022/10/01 06:11:36;;;;;;;;;;;;;;;7.63;95.61;96014.84;4901807;29;19976;-75
2022/10/01 06:14:02;;;;;;;;;;;;;;;7.67;95.74;96015.25;4901488;29;19956;-74
2022/10/01 06:16:28;;;;;;;;;;;;;;;7.73;94.59;96017.00;4902026;29;20342;-75
2022/10/01 06:18:56;;;;;;;;;;;;;;;7.73;94.54;96017.81;4901636;29;19965;-75
2022/10/01 06:21:23;;;;;;;;;;;;;;;7.71;94.59;96009.38;4892390;29;19966;-75
2022/10/01 06:23:49;;;;;;;;;;;;;;;7.65;94.67;96006.81;4901500;29;19966;-75
2022/10/01 06:26:16;;;;;;;;;;;;;;;7.62;95.47;96015.06;4901584;29;19956;-75
2022/10/01 06:28:42;;;;;;;;;;;;;;;7.60;95.89;96002.22;4901415;29;19954;-74
2022/10/01 06:31:07;;;;;;;;;;;;;;;7.59;94.96;95995.41;4901282;29;19982;-75
2022/10/01 06:33:33;;;;;;;;;;;;;;;7.62;95.18;95999.41;4901574;29;19961;-75
2022/10/01 06:35:59;;;;;;;;;;;;;;;7.64;95.13;95997.38;4900003;29;20023;-75
2022/10/01 06:38:25;;;;;;;;;;;;;;;7.68;94.80;95995.94;4901457;29;19954;-75
2022/10/01 06:40:52;;;;;;;;;;;;;;;7.73;94.29;95993.53;4901236;29;19962;-75
2022/10/01 06:43:18;;;;;;;;;;;;;;;7.78;93.47;95995.50;4901577;29;19954;-75
2022/10/01 06:45:44;;;;;;;;;;;;;;;7.84;93.45;95994.66;4901209;29;19949;-75
2022/10/01 06:48:14;;;;;;;;;;;;;;;7.89;93.15;95994.81;4901218;29;19960;-75
2022/10/01 06:50:41;;;;;;;;;;;;;;;7.89;93.97;95998.22;4901043;29;19952;-75
2022/10/01 06:53:07;;;;;;;;;;;;;;;7.95;93.00;95999.19;4900171;29;19961;-75
2022/10/01 06:55:34;;;;;;;;;;;;;;;7.98;93.35;95995.34;4900932;29;20430;-76
2022/10/01 06:58:01;;;;;;;;;;;;;;;8.01;93.54;96002.75;4900990;29;20410;-75
2022/10/01 07:00:29;;;;;;;;;;;;;;;8.05;93.51;96001.34;4900499;29;19960;-75
2022/10/01 07:02:55;;;;;;;;;;;;;;;8.06;93.65;96003.75;4900783;29;20422;-75
2022/10/01 07:05:22;;;;;;;;;;;;;;;8.09;93.12;96005.13;4900685;29;20412;-75
2022/10/01 07:07:48;;;;;;;;;;;;;;;8.12;92.80;96004.69;4901427;29;19962;-75
2022/10/01 07:10:14;;;;;;;;;;;;;;;8.14;92.47;95993.00;4899617;29;19959;-75
2022/10/01 07:12:40;;;;;;;;;;;;;;;8.18;91.47;95998.59;4900602;29;19961;-75
2022/10/01 07:15:07;;;;;;;;;;;;;;;8.22;91.84;96006.81;4900537;29;19957;-75
2022/10/01 07:17:33;;;;;;;;;;;;;;;8.24;91.69;96008.22;4900820;29;19960;-75
2022/10/01 07:20:00;;;;;;;;;;;;;;;8.30;92.76;96003.94;4900623;29;19969;-75
2022/10/01 07:22:26;;;;;;;;;;;;;;;8.34;90.45;95987.63;4900846;29;19965;-75
2022/10/01 07:24:52;;;;;;;;;;;;;;;8.37;91.66;95985.59;4900580;29;20008;-75
2022/10/01 07:27:18;;;;;;;;;;;;;;;8.42;91.53;95997.03;4900497;29;20055;-75
2022/10/01 07:29:44;;;;;;;;;;;;;;;8.43;91.53;95993.41;4900598;29;19962;-75
2022/10/01 07:32:10;;;;;;;;;;;;;;;8.44;92.41;95999.41;4900216;29;19978;-75
2022/10/01 07:34:39;;;;;;;;;;;;;;;8.44;92.18;95995.00;4900768;29;20382;-76
2022/10/01 07:37:05;;;;;;;;;;;;;;;8.44;92.31;95991.56;4888397;29;19975;-75
2022/10/01 07:39:31;;;;;;;;;;;;;;;8.45;92.28;95987.97;4900206;29;19957;-76
2022/10/01 07:41:57;;;;;;;;;;;;;;;8.45;93.33;96007.06;4900589;29;19956;-75
2022/10/01 07:44:25;;;;;;;;;;;;;;;8.44;93.78;96005.47;4900032;29;19954;-75
2022/10/01 07:46:51;;;;;;;;;;;;;;;8.47;94.03;96006.84;4900149;29;20411;-75
2022/10/01 07:49:17;;;;;;;;;;;;;;;8.47;94.23;96001.63;4900013;29;20000;-76
2022/10/01 07:51:43;;;;;;;;;;;;;;;8.49;94.46;96002.19;4900167;29;19971;-75
2022/10/01 07:54:09;;;;;;;;;;;;;;;8.49;94.50;96005.59;4900118;29;19969;-75
2022/10/01 07:56:35;;;;;;;;;;;;;;;8.50;95.68;96007.22;4899987;29;19969;-75
2022/10/01 07:59:01;;;;;;;;;;;;;;;8.50;96.06;96012.44;4899807;29;19963;-75
2022/10/01 08:01:29;;;;;;;;;;;;;;;8.51;96.88;96013.25;4899964;29;19955;-75
2022/10/01 08:03:54;;;;;;;;;;;;;;;8.52;96.83;96007.00;4899756;29;19966;-75
2022/10/01 08:06:20;;;;;;;;;;;;;;;8.52;97.18;95999.16;4899651;29;20013;-75
2022/10/01 08:08:46;;;;;;;;;;;;;;;8.54;98.52;96002.34;4899720;29;20336;-76
2022/10/01 08:11:14;;;;;;;;;;;;;;;8.54;98.08;96002.34;4899674;29;19958;-75
2022/10/01 08:13:40;;;;;;;;;;;;;;;8.56;100.00;96015.19;4898917;29;19961;-75
2022/10/01 08:16:08;;;;;;;;;;;;;;;8.55;99.79;96011.78;4899602;29;20365;-75
2022/10/01 08:18:35;;;;;;;;;;;;;;;8.57;100.00;96011.56;4899787;29;19960;-75
2022/10/01 08:21:03;;;;;;;;;;;;;;;8.56;100.00;96002.94;4898881;29;19953;-75
2022/10/01 08:23:33;;;;;;;;;;;;;;;8.56;100.00;96008.16;4899516;29;19961;-76
2022/10/01 08:26:00;;;;;;;;;;;;;;;8.58;100.00;96016.59;4889844;29;19965;-76
2022/10/01 08:28:26;;;;;;;;;;;;;;;8.59;100.00;96012.97;4899690;29;20026;-74
2022/10/01 08:30:52;;;;;;;;;;;;;;;8.63;100.00;96015.94;4899175;29;19958;-75
2022/10/01 08:33:18;;;;;;;;;;;;;;;8.64;100.00;96026.19;4899056;29;19987;-74
2022/10/01 08:35:43;;;;;;;;;;;;;;;8.66;100.00;96028.59;4898978;29;19978;-75
2022/10/01 08:38:10;;;;;;;;;;;;;;;8.66;100.00;96042.44;4899231;29;20056;-74
2022/10/01 08:40:42;;;;;;;;;;;;;;;8.70;100.00;96035.78;4899296;29;20344;-74
2022/10/01 08:43:20;;;;;;;;;;;;;;;8.71;100.00;96032.16;4899252;29;19970;-74
2022/10/01 08:45:51;;;;;;;;;;;;;;;8.74;100.00;96031.72;4899510;29;19956;-74
2022/10/01 08:48:28;;;;;;;;;;;;;;;8.79;100.00;96038.91;4887633;29;20343;-74
2022/10/01 08:51:02;;;;;;;;;;;;;;;8.85;100.00;96037.25;4898691;29;19953;-75
2022/10/01 08:53:42;;;;;;;;;;;;;;;8.89;100.00;96026.13;4899675;29;19965;-74
2022/10/01 08:56:16;;;;;;;;;;;;;;;8.94;100.00;96025.47;4898865;29;20421;-74
2022/10/01 08:58:45;;;;;;;;;;;;;;;8.98;100.00;96031.88;4899175;29;20361;-74
2022/10/01 09:01:11;;;;;;;;;;;;;;;9.01;100.00;96026.22;4898622;29;19957;-74
2022/10/01 09:03:38;;;;;;;;;;;;;;;9.03;100.00;96032.03;4898841;29;20019;-75
2022/10/01 09:06:21;;;;;;;;;;;;;;;9.07;100.00;96029.75;4898835;29;19964;-74
2022/10/01 09:08:59;;;;;;;;;;;;;;;9.11;100.00;96033.53;4898798;29;19951;-74
2022/10/01 09:11:34;;;;;;;;;;;;;;;9.11;100.00;96031.75;4899099;29;19966;-74
2022/10/01 09:14:00;;;;;;;;;;;;;;;9.14;100.00;96030.50;4898457;29;20300;-74
2022/10/01 09:16:29;;;;;;;;;;;;;;;9.20;100.00;96036.66;4898402;29;20364;-74
2022/10/01 09:18:55;;;;;;;;;;;;;;;9.21;100.00;96033.84;4898630;29;19967;-74
2022/10/01 09:21:24;;;;;;;;;;;;;;;9.24;100.00;96037.81;4898487;29;19957;-74
2022/10/01 09:24:01;;;;;;;;;;;;;;;9.27;100.00;96030.34;4898242;29;20327;-74
2022/10/01 09:26:26;;;;;;;;;;;;;;;9.29;100.00;96035.38;4898604;29;19953;-75
2022/10/01 09:28:53;;;;;;;;;;;;;;;9.32;100.00;96032.28;4898434;29;20060;-75
2022/10/01 09:31:23;;;;;;;;;;;;;;;9.37;100.00;96032.44;4898472;29;19994;-76
2022/10/01 09:33:54;;;;;;;;;;;;;;;9.42;100.00;96040.44;4898337;29;19958;-75
2022/10/01 09:36:33;;;;;;;;;;;;;;;9.49;100.00;96043.78;4898895;29;19962;-75
2022/10/01 09:39:17;;;;;;;;;;;;;;;9.57;100.00;96042.66;4898322;29;19950;-75
2022/10/01 09:41:45;;;;;;;;;;;;;;;9.67;100.00;96039.53;4898461;29;19955;-75
2022/10/01 09:44:15;;;;;;;;;;;;;;;9.75;100.00;96031.34;4898611;29;19958;-75
2022/10/01 09:46:42;;;;;;;;;;;;;;;9.81;100.00;96035.72;4898575;29;20343;-75
2022/10/01 09:49:12;;;;;;;;;;;;;;;9.86;100.00;96038.44;4898476;29;19962;-75
2022/10/01 09:51:41;;;;;;;;;;;;;;;9.90;100.00;96034.34;4898356;29;19958;-75
2022/10/01 09:54:14;;;;;;;;;;;;;;;9.94;100.00;96032.88;4888650;29;19953;-74
2022/10/01 09:56:52;;;;;;;;;;;;;;;9.98;100.00;96035.06;4890803;29;20419;-74
2022/10/01 09:59:24;;;;;;;;;;;;;;;10.03;100.00;96040.44;4898341;29;19965;-75
2022/10/01 10:01:53;;;;;;;;;;;;;;;10.06;100.00;96042.63;4898649;29;19962;-74
2022/10/01 10:04:20;;;;;;;;;;;;;;;10.07;100.00;96037.13;4898261;29;19960;-74
2022/10/01 10:06:46;;;;;;;;;;;;;;;10.08;100.00;96040.53;4897636;29;19953;-75
2022/10/01 10:09:16;;;;;;;;;;;;;;;10.09;100.00;96050.00;4898387;29;20035;-74
2022/10/01 10:11:43;;;;;;;;;;;;;;;10.13;100.00;96067.69;4898192;29;19957;-75
2022/10/01 10:14:16;;;;;;;;;;;;;;;10.14;100.00;96066.66;4898055;29;19963;-75
2022/10/01 10:16:46;;;;;;;;;;;;;;;10.15;100.00;96062.22;4897768;29;19974;-76
2022/10/01 10:19:28;;;;;;;;;;;;;;;10.18;100.00;96079.31;4898495;29;19957;-75
2022/10/01 10:21:56;;;;;;;;;;;;;;;10.15;100.00;96072.69;4897997;29;19959;-75
2022/10/01 10:24:32;;;;;;;;;;;;;;;10.22;100.00;96078.63;4898097;29;19955;-74
2022/10/01 10:26:59;;;;;;;;;;;;;;;10.19;100.00;96078.31;4884910;29;19959;-73
2022/10/01 10:29:27;;;;;;;;;;;;;;;10.14;100.00;96084.19;4898133;29;19955;-73
2022/10/01 10:31:54;;;;;;;;;;;;;;;10.11;100.00;96082.81;4898057;29;19990;-74
2022/10/01 10:34:23;;;;;;;;;;;;;;;10.11;100.00;96092.50;4898349;29;19977;-74
2022/10/01 10:36:55;;;;;;;;;;;;;;;10.10;100.00;96085.66;4900691;29;19973;-74
2022/10/01 10:39:24;;;;;;;;;;;;;;;10.11;100.00;96072.34;4901087;29;19961;-74
2022/10/01 10:41:51;;;;;;;;;;;;;;;10.14;100.00;96076.34;4900847;29;19956;-74
2022/10/01 10:44:20;;;;;;;;;;;;;;;10.20;100.00;96074.66;4901499;29;19961;-74
2022/10/01 10:46:46;;;;;;;;;;;;;;;10.27;100.00;96076.16;4901391;29;20412;-74
2022/10/01 10:49:22;;;;;;;;;;;;;;;10.34;100.00;96082.13;4901529;29;20402;-74
2022/10/01 10:51:52;;;;;;;;;;;;;;;10.39;100.00;96078.03;4901105;29;19957;-74
2022/10/01 10:54:32;;;;;;;;;;;;;;;10.41;100.00;96068.91;4899942;29;19967;-74
2022/10/01 10:57:02;;;;;;;;;;;;;;;10.43;100.00;96050.34;4901080;29;19972;-75
2022/10/01 10:59:30;;;;;;;;;;;;;;;10.46;100.00;96057.75;4900715;29;19955;-74
2022/10/01 11:01:57;;;;;;;;;;;;;;;10.49;100.00;96062.53;4901201;29;19954;-74
2022/10/01 11:04:28;;;;;;;;;;;;;;;10.50;100.00;96038.72;4900787;29;19985;-74
2022/10/01 11:06:56;;;;;;;;;;;;;;;10.54;100.00;96037.25;4901139;29;19953;-75
2022/10/01 11:09:24;;;;;;;;;;;;;;;10.60;100.00;96042.59;4900838;29;19954;-75
2022/10/01 11:11:50;;;;;;;;;;;;;;;10.65;100.00;96042.72;4900786;29;19951;-75
2022/10/01 11:14:24;;;;;;;;;;;;;;;10.68;100.00;96037.81;4900730;29;20405;-75
2022/10/01 11:16:53;;;;;;;;;;;;;;;10.76;100.00;96044.53;4900806;29;19971;-75
2022/10/01 11:19:24;;;;;;;;;;;;;;;10.81;100.00;96042.03;4900439;29;19955;-75
2022/10/01 11:21:56;;;;;;;;;;;;;;;10.85;100.00;96051.03;4901043;29;20334;-75
2022/10/01 11:24:44;;;;;;;;;;;;;;;10.90;100.00;96040.66;4900771;29;19958;-75
2022/10/01 11:27:26;;;;;;;;;;;;;;;10.93;100.00;96044.66;4900586;29;19962;-75
2022/10/01 11:30:04;;;;;;;;;;;;;;;10.90;100.00;96047.75;4887692;29;19941;-75
2022/10/01 11:32:48;;;;;;;;;;;;;;;10.87;100.00;96043.72;4900124;29;19984;-75
2022/10/01 11:35:18;;;;;;;;;;;;;;;10.86;100.00;96050.00;4894060;29;19957;-75
2022/10/01 11:37:50;;;;;;;;;;;;;;;10.90;100.00;96050.38;4900385;29;19973;-75
2022/10/01 11:40:16;;;;;;;;;;;;;;;10.93;100.00;96055.13;4900164;29;19962;-75
2022/10/01 11:42:43;;;;;;;;;;;;;;;10.92;100.00;96048.31;4900474;29;19959;-75
2022/10/01 11:45:15;;;;;;;;;;;;;;;10.93;100.00;96066.41;4900278;29;19957;-75
2022/10/01 11:47:46;;;;;;;;;;;;;;;10.96;100.00;96062.53;4899800;29;19961;-75
2022/10/01 11:50:11;;;;;;;;;;;;;;;11.01;100.00;96065.28;4900152;29;19959;-75
2022/10/01 11:52:54;;;;;;;;;;;;;;;11.07;100.00;96061.75;4899925;29;19960;-75
2022/10/01 11:58:49;;;;;;;;;;;;;;;11.22;100.00;96063.09;4879351;29;19975;-75
2022/10/01 12:01:20;;;;;;;;;;;;;;;11.28;100.00;96068.22;4899449;29;19964;-75
2022/10/01 12:03:52;;;;;;;;;;;;;;;11.32;100.00;96055.44;4900246;29;19970;-75
2022/10/01 12:06:38;;;;;;;;;;;;;;;11.32;100.00;96071.97;4900008;29;19957;-75
2022/10/01 12:09:07;;;;;;;;;;;;;;;11.30;100.00;96068.00;4886436;29;19961;-75
2022/10/01 12:11:49;;;;;;;;;;;;;;;11.26;100.00;96066.88;4899601;29;19965;-75
2022/10/01 12:14:18;;;;;;;;;;;;;;;11.23;100.00;96069.94;4899811;29;19963;-75
2022/10/01 12:16:51;;;;;;;;;;;;;;;11.20;100.00;96073.81;4898928;29;20075;-75
2022/10/01 12:19:20;;;;;;;;;;;;;;;11.21;100.00;96061.50;4899733;29;19954;-76
2022/10/01 12:21:50;;;;;;;;;;;;;;;11.20;100.00;96065.94;4899566;29;19951;-75
2022/10/01 12:24:23;;;;;;;;;;;;;;;11.20;100.00;96065.94;4898445;29;20331;-75
2022/10/01 12:26:55;;;;;;;;;;;;;;;11.21;100.00;96070.16;4899642;29;19954;-75
2022/10/01 12:29:41;;;;;;;;;;;;;;;11.23;100.00;96070.72;4899591;29;20336;-75
2022/10/01 12:32:08;;;;;;;;;;;;;;;11.29;100.00;96076.88;4888109;29;19976;-75
2022/10/01 12:34:48;;;;;;;;;;;;;;;11.38;100.00;96075.47;4898952;29;19967;-76
2022/10/01 12:37:17;;;;;;;;;;;;;;;11.49;100.00;96071.25;4888105;29;19982;-75
2022/10/01 12:39:59;;;;;;;;;;;;;;;11.65;100.00;96069.72;4899133;29;19967;-76
2022/10/01 12:42:30;;;;;;;;;;;;;;;11.77;100.00;96073.91;4897233;29;19972;-75
2022/10/01 12:45:11;;;;;;;;;;;;;;;11.89;100.00;96065.22;4898982;29;19956;-76
2022/10/01 12:47:43;;;;;;;;;;;;;;;11.95;99.87;96072.94;4899193;29;19957;-75
2022/10/01 12:50:09;;;;;;;;;;;;;;;12.05;100.00;96074.94;4899175;29;19970;-76
2022/10/01 12:52:38;;;;;;;;;;;;;;;12.26;99.60;96076.09;4898924;29;19959;-76
2022/10/01 12:55:22;;;;;;;;;;;;;;;12.65;99.55;96078.06;4899020;29;19961;-75
2022/10/01 12:57:57;;;;;;;;;;;;;;;13.06;95.23;96081.25;4897199;29;20057;-75
2022/10/01 13:00:25;;;;;;;;;;;;;;;13.35;92.94;96084.56;4899234;29;19965;-76
2022/10/01 13:02:50;;;;;;;;;;;;;;;13.62;91.33;96081.22;4898807;29;19958;-75
2022/10/01 13:05:18;;;;;;;;;;;;;;;13.86;91.32;96081.75;4898710;29;20372;-76